createdAt,value
2019-04-04T00:01:36.073Z,2.89
2019-04-04T00:04:43.259Z,2.89
2019-04-04T00:07:50.331Z,2.88
2019-04-04T00:10:57.615Z,2.83
2019-04-04T00:14:05.247Z,2.73
2019-04-04T00:17:12.356Z,2.73
2019-04-04T00:20:19.110Z,2.81
2019-04-04T00:23:25.806Z,2.76
2019-04-04T00:26:33.392Z,2.78
2019-04-04T00:29:40.575Z,2.80
2019-04-04T00:32:48.236Z,2.80
2019-04-04T00:35:55.274Z,2.76
2019-04-04T00:39:02.266Z,2.69
2019-04-04T00:42:09.968Z,2.70
2019-04-04T00:45:17.292Z,2.70
2019-04-04T00:48:24.709Z,2.68
2019-04-04T00:51:31.773Z,2.66
2019-04-04T00:54:38.987Z,2.66
2019-04-04T00:57:46.014Z,2.60
2019-04-04T01:00:54.866Z,2.52
2019-04-04T01:04:01.989Z,2.61
2019-04-04T01:07:08.936Z,2.73
2019-04-04T01:10:18.805Z,2.79
2019-04-04T01:13:27.526Z,2.89
2019-04-04T01:16:35.484Z,3.01
2019-04-04T01:19:43.296Z,3.09
2019-04-04T01:22:50.424Z,3.09
2019-04-04T01:25:58.227Z,3.20
2019-04-04T01:29:05.837Z,3.26
2019-04-04T01:32:15.152Z,3.32
2019-04-04T01:35:24.063Z,3.43
2019-04-04T01:38:31.278Z,3.45
2019-04-04T01:41:38.682Z,3.45
2019-04-04T01:44:45.990Z,3.31
2019-04-04T01:47:53.290Z,3.38
2019-04-04T01:51:00.808Z,3.42
2019-04-04T01:54:07.969Z,3.35
2019-04-04T01:57:15.602Z,3.51
2019-04-04T02:00:22.458Z,3.54
2019-04-04T02:03:28.826Z,3.54
2019-04-04T02:06:38.243Z,3.55
2019-04-04T02:09:46.285Z,3.54
2019-04-04T02:12:53.490Z,3.59
2019-04-04T02:16:00.934Z,3.34
2019-04-04T02:19:07.971Z,3.54
2019-04-04T02:22:15.236Z,3.47
2019-04-04T02:25:25.541Z,3.51
2019-04-04T02:28:32.588Z,3.31
2019-04-04T02:31:53.279Z,3.37
2019-04-04T02:34:59.596Z,3.37
2019-04-04T02:38:07.244Z,3.18
2019-04-04T02:41:15.389Z,3.18
2019-04-04T02:44:22.892Z,3.05
2019-04-04T02:47:30.408Z,3.01
2019-04-04T02:50:37.380Z,2.99
2019-04-04T02:53:43.570Z,2.98
2019-04-04T02:56:49.616Z,2.95
2019-04-04T02:59:56.605Z,2.99
2019-04-04T03:03:08.057Z,2.99
2019-04-04T03:06:14.286Z,2.81
2019-04-04T03:09:21.320Z,2.94
2019-04-04T03:12:28.403Z,2.99
2019-04-04T03:15:35.747Z,2.87
2019-04-04T03:18:42.666Z,2.87
2019-04-04T03:21:49.528Z,2.99
2019-04-04T03:24:55.823Z,3.14
2019-04-04T03:28:02.539Z,3.19
2019-04-04T03:31:09.839Z,3.28
2019-04-04T03:34:17.643Z,3.28
2019-04-04T03:37:24.902Z,3.48
2019-04-04T03:40:32.117Z,3.44
2019-04-04T03:43:39.265Z,3.48
2019-04-04T03:46:46.263Z,3.50
2019-04-04T03:49:57.618Z,3.61
2019-04-04T03:53:04.282Z,3.44
2019-04-04T03:56:11.261Z,3.66
2019-04-04T03:59:18.725Z,3.64
2019-04-04T04:02:25.693Z,3.62
2019-04-04T04:05:35.562Z,3.31
2019-04-04T04:08:41.505Z,3.04
2019-04-04T04:11:48.628Z,3.04
2019-04-04T04:14:55.995Z,3.01
2019-04-04T04:18:03.323Z,2.91
2019-04-04T04:21:11.326Z,2.74
2019-04-04T04:24:18.761Z,2.57
2019-04-04T04:27:25.721Z,2.59
2019-04-04T04:30:32.706Z,2.41
2019-04-04T04:33:39.914Z,2.32
2019-04-04T04:36:47.965Z,2.28
2019-04-04T04:39:56.065Z,2.08
2019-04-04T04:43:03.303Z,2.08
2019-04-04T04:46:10.525Z,2.13
2019-04-04T04:49:17.613Z,1.97
2019-04-04T04:52:24.540Z,1.99
2019-04-04T04:55:31.752Z,1.99
2019-04-04T04:58:41.758Z,2.01
2019-04-04T05:01:50.409Z,1.91
2019-04-04T05:04:57.272Z,2.03
2019-04-04T05:08:05.719Z,2.09
2019-04-04T05:11:14.495Z,2.08
2019-04-04T05:14:21.266Z,2.21
2019-04-04T05:17:27.794Z,2.45
2019-04-04T05:20:35.260Z,2.69
2019-04-04T05:23:44.870Z,2.85
2019-04-04T05:26:52.278Z,2.85
2019-04-04T05:30:01.298Z,3.10
2019-04-04T05:33:08.257Z,3.38
2019-04-04T05:36:15.498Z,3.34
2019-04-04T05:39:23.830Z,3.88
2019-04-04T05:42:33.112Z,3.88
2019-04-04T05:45:40.939Z,4.17
2019-04-04T05:48:48.341Z,4.17
2019-04-04T05:51:55.879Z,4.35
2019-04-04T05:55:03.244Z,4.87
2019-04-04T05:58:10.560Z,4.99
2019-04-04T06:01:22.292Z,5.38
2019-04-04T06:04:29.314Z,5.38
2019-04-04T06:07:37.089Z,5.58
2019-04-04T06:10:44.232Z,5.89
2019-04-04T06:13:51.272Z,5.58
2019-04-04T06:16:58.607Z,5.32
2019-04-04T06:20:08.516Z,5.48
2019-04-04T06:23:15.676Z,5.48
2019-04-04T06:26:23.379Z,5.48
2019-04-04T06:29:29.579Z,5.49
2019-04-04T06:32:38.870Z,5.33
2019-04-04T06:35:47.249Z,5.38
2019-04-04T06:38:55.489Z,5.13
2019-04-04T06:42:03.923Z,5.18
2019-04-04T06:45:15.113Z,5.18
2019-04-04T06:48:20.450Z,5.43
2019-04-04T06:51:27.721Z,5.16
2019-04-04T06:54:35.570Z,5.16
2019-04-04T06:57:42.974Z,5.63
2019-04-04T07:00:50.335Z,5.63
2019-04-04T07:03:59.532Z,5.80
2019-04-04T07:07:05.687Z,5.62
2019-04-04T07:10:12.666Z,5.43
2019-04-04T07:13:21.897Z,5.71
2019-04-04T07:16:27.893Z,5.63
2019-04-04T07:19:35.314Z,6.03
2019-04-04T07:22:43.557Z,5.70
2019-04-04T07:25:53.328Z,5.56
2019-04-04T07:28:59.929Z,5.56
2019-04-04T07:32:09.482Z,5.29
2019-04-04T07:35:17.136Z,6.00
2019-04-04T07:38:26.620Z,6.02
2019-04-04T07:41:34.651Z,6.31
2019-04-04T07:44:42.745Z,6.56
2019-04-04T07:47:50.686Z,6.60
2019-04-04T07:50:58.547Z,6.23
2019-04-04T07:54:07.380Z,6.80
2019-04-04T07:57:17.343Z,7.19
2019-04-04T08:00:27.530Z,6.55
2019-04-04T08:03:34.887Z,6.16
2019-04-04T08:06:41.912Z,6.16
2019-04-04T08:09:49.073Z,5.81
2019-04-04T08:12:57.082Z,5.84
2019-04-04T08:16:06.320Z,5.54
2019-04-04T08:19:13.091Z,5.41
2019-04-04T08:22:20.592Z,5.63
2019-04-04T08:25:28.313Z,6.03
2019-04-04T08:28:35.518Z,6.41
2019-04-04T08:31:44.418Z,6.14
2019-04-04T08:34:50.674Z,6.39
2019-04-04T08:37:57.590Z,6.05
2019-04-04T08:41:05.266Z,6.05
2019-04-04T08:44:12.261Z,6.14
2019-04-04T08:47:19.426Z,6.10
2019-04-04T08:50:26.238Z,6.32
2019-04-04T08:53:40.228Z,6.03
2019-04-04T08:56:43.277Z,6.44
2019-04-04T08:59:50.358Z,6.68
2019-04-04T09:02:59.257Z,6.78
2019-04-04T09:06:06.544Z,6.73
2019-04-04T09:09:14.059Z,6.66
2019-04-04T09:12:20.924Z,6.58
2019-04-04T09:15:27.781Z,6.67
2019-04-04T09:18:35.334Z,6.68
2019-04-04T09:21:41.691Z,7.10
2019-04-04T09:24:49.274Z,6.89
2019-04-04T09:27:56.902Z,6.89
2019-04-04T09:31:04.755Z,7.43
2019-04-04T09:34:12.277Z,7.67
2019-04-04T09:37:19.416Z,8.47
2019-04-04T09:40:26.300Z,8.66
2019-04-04T09:43:33.255Z,8.68
2019-04-04T09:46:41.004Z,8.89
2019-04-04T09:49:48.277Z,9.02
2019-04-04T09:52:55.316Z,9.54
2019-04-04T09:56:01.885Z,9.51
2019-04-04T09:59:08.792Z,9.59
2019-04-04T10:02:15.834Z,10.10
2019-04-04T10:05:23.518Z,10.94
2019-04-04T10:08:31.067Z,11.15
2019-04-04T10:11:38.612Z,11.65
2019-04-04T10:14:45.998Z,10.65
2019-04-04T10:17:53.363Z,11.09
2019-04-04T10:21:11.102Z,12.85
2019-04-04T10:24:09.389Z,10.95
2019-04-04T10:27:16.755Z,11.56
2019-04-04T10:30:24.175Z,10.04
2019-04-04T10:33:32.726Z,9.58
2019-04-04T10:36:39.852Z,9.03
2019-04-04T10:39:48.260Z,9.09
2019-04-04T10:42:55.590Z,8.54
2019-04-04T10:46:03.292Z,8.50
2019-04-04T10:49:10.012Z,9.06
2019-04-04T10:52:17.303Z,8.71
2019-04-04T10:55:24.336Z,8.51
2019-04-04T10:58:31.759Z,9.01
2019-04-04T11:01:40.436Z,9.41
2019-04-04T11:04:49.016Z,9.44
2019-04-04T11:07:56.886Z,9.99
2019-04-04T11:11:04.252Z,10.14
2019-04-04T11:14:11.369Z,10.95
2019-04-04T11:17:18.328Z,11.10
2019-04-04T11:20:25.879Z,11.24
2019-04-04T11:23:33.774Z,10.94
2019-04-04T11:26:40.734Z,11.34
2019-04-04T11:29:47.942Z,10.44
2019-04-04T11:32:55.672Z,11.93
2019-04-04T11:36:03.350Z,11.47
2019-04-04T11:39:10.411Z,11.40
2019-04-04T11:42:18.694Z,11.27
2019-04-04T11:45:25.995Z,12.53
2019-04-04T11:48:33.723Z,12.75
2019-04-04T11:51:41.283Z,13.88
2019-04-04T11:55:01.938Z,12.84
2019-04-04T11:58:10.951Z,13.75
2019-04-04T12:01:20.643Z,13.82
2019-04-04T12:04:27.677Z,13.41
2019-04-04T12:07:38.398Z,12.50
2019-04-04T12:10:45.111Z,12.86
2019-04-04T12:13:53.176Z,12.29
2019-04-04T12:17:01.191Z,12.41
2019-04-04T12:20:08.987Z,12.63
2019-04-04T12:23:17.219Z,12.52
2019-04-04T12:26:25.429Z,12.10
2019-04-04T12:29:33.653Z,11.52
2019-04-04T12:32:43.667Z,11.42
2019-04-04T12:35:52.394Z,11.99
2019-04-04T12:39:02.261Z,11.52
2019-04-04T12:42:11.529Z,11.48
2019-04-04T12:45:19.286Z,11.68
2019-04-04T12:48:26.391Z,12.05
2019-04-04T12:51:32.993Z,11.69
2019-04-04T12:54:40.578Z,11.99
2019-04-04T12:57:48.406Z,11.99
2019-04-04T13:00:57.236Z,12.63
2019-04-04T13:04:04.719Z,11.97
2019-04-04T13:07:12.731Z,11.97
2019-04-04T13:10:32.054Z,12.37
2019-04-04T13:13:29.639Z,12.18
2019-04-04T13:16:39.009Z,12.39
2019-04-04T13:19:47.335Z,12.86
2019-04-04T13:22:54.133Z,12.00
2019-04-04T13:26:01.430Z,12.46
2019-04-04T13:29:07.661Z,12.22
2019-04-04T13:32:15.262Z,11.70
2019-04-04T13:35:22.933Z,11.70
2019-04-04T13:38:30.301Z,11.77
2019-04-04T13:41:40.700Z,11.48
2019-04-04T13:44:47.757Z,11.81
2019-04-04T13:47:55.359Z,11.58
2019-04-04T13:51:02.365Z,11.32
2019-04-04T13:54:10.764Z,11.21
2019-04-04T13:57:19.789Z,11.24
2019-04-04T14:00:27.043Z,11.03
2019-04-04T14:03:34.704Z,11.85
2019-04-04T14:06:43.324Z,11.93
2019-04-04T14:09:51.081Z,11.83
2019-04-04T14:13:00.310Z,11.74
2019-04-04T14:16:08.589Z,11.65
2019-04-04T14:19:16.315Z,12.24
2019-04-04T14:22:24.328Z,12.24
2019-04-04T14:25:31.779Z,11.54
2019-04-04T14:28:39.583Z,11.44
2019-04-04T14:31:47.273Z,11.71
2019-04-04T14:34:55.215Z,12.02
2019-04-04T14:38:03.271Z,11.27
2019-04-04T14:41:12.003Z,11.56
2019-04-04T14:44:19.399Z,11.13
2019-04-04T14:47:25.645Z,11.75
2019-04-04T14:50:32.732Z,11.58
2019-04-04T14:53:40.445Z,11.73
2019-04-04T14:56:47.347Z,11.78
2019-04-04T14:59:54.947Z,11.63
2019-04-04T15:03:02.342Z,11.97
2019-04-04T15:06:09.811Z,11.63
2019-04-04T15:09:17.278Z,11.48
2019-04-04T15:12:28.302Z,11.89
2019-04-04T15:15:35.031Z,12.07
2019-04-04T15:18:42.229Z,11.59
2019-04-04T15:21:51.691Z,12.09
2019-04-04T15:24:58.770Z,11.66
2019-04-04T15:28:06.179Z,11.79
2019-04-04T15:31:15.469Z,12.15
2019-04-04T15:34:23.884Z,12.15
2019-04-04T15:37:32.115Z,12.09
2019-04-04T15:40:39.430Z,11.78
2019-04-04T15:43:47.672Z,11.56
2019-04-04T15:46:55.250Z,11.05
2019-04-04T15:50:02.915Z,11.60
2019-04-04T15:53:10.303Z,11.52
2019-04-04T15:56:17.404Z,11.46
2019-04-04T15:59:25.601Z,11.33
2019-04-04T16:02:33.361Z,11.49
2019-04-04T16:05:42.942Z,11.16
2019-04-04T16:08:50.346Z,11.16
2019-04-04T16:11:57.381Z,11.09
2019-04-04T16:15:04.241Z,10.97
2019-04-04T16:18:12.938Z,11.26
2019-04-04T16:21:20.725Z,11.18
2019-04-04T16:24:29.258Z,11.09
2019-04-04T16:27:36.375Z,10.99
2019-04-04T16:30:42.900Z,11.11
2019-04-04T16:33:49.778Z,10.82
2019-04-04T16:36:58.405Z,10.72
2019-04-04T16:40:10.449Z,10.75
2019-04-04T16:43:17.751Z,10.75
2019-04-04T16:46:26.505Z,10.42
2019-04-04T16:49:34.112Z,10.37
2019-04-04T16:52:41.931Z,10.37
2019-04-04T16:55:49.402Z,10.37
2019-04-04T16:58:56.461Z,10.16
2019-04-04T17:02:04.296Z,10.18
2019-04-04T17:05:11.395Z,10.23
2019-04-04T17:08:19.435Z,10.12
2019-04-04T17:11:26.987Z,10.16
2019-04-04T17:14:34.294Z,9.97
2019-04-04T17:17:44.397Z,9.74
2019-04-04T17:20:51.441Z,9.87
2019-04-04T17:23:58.622Z,9.83
2019-04-04T17:27:08.349Z,9.83
2019-04-04T17:30:15.077Z,9.87
2019-04-04T17:33:22.397Z,9.65
2019-04-04T17:36:29.560Z,9.47
2019-04-04T17:39:38.810Z,9.08
2019-04-04T17:42:46.288Z,9.16
2019-04-04T17:45:54.145Z,9.18
2019-04-04T17:49:02.179Z,9.11
2019-04-04T17:52:10.356Z,9.10
2019-04-04T17:55:19.733Z,8.51
2019-04-04T17:58:27.462Z,8.51
2019-04-04T18:01:36.320Z,8.58
2019-04-04T18:04:48.537Z,8.58
2019-04-04T18:07:54.430Z,8.48
2019-04-04T18:11:01.662Z,8.55
2019-04-04T18:14:11.386Z,8.55
2019-04-04T18:17:17.700Z,8.61
2019-04-04T18:20:24.762Z,8.47
2019-04-04T18:23:33.297Z,8.47
2019-04-04T18:26:40.685Z,8.13
2019-04-04T18:29:48.360Z,8.45
2019-04-04T18:32:56.798Z,8.17
2019-04-04T18:36:04.588Z,8.17
2019-04-04T18:39:13.607Z,8.33
2019-04-04T18:42:20.623Z,8.40
2019-04-04T18:45:28.259Z,8.30
2019-04-04T18:48:37.376Z,8.34
2019-04-04T18:51:46.670Z,8.41
2019-04-04T18:54:53.991Z,8.40
2019-04-04T18:58:01.581Z,8.28
2019-04-04T19:01:09.508Z,8.33
2019-04-04T19:04:16.980Z,8.03
2019-04-04T19:07:23.954Z,8.03
2019-04-04T19:10:31.450Z,8.22
2019-04-04T19:13:43.993Z,8.26
2019-04-04T19:16:47.187Z,8.29
2019-04-04T19:19:54.369Z,8.07
2019-04-04T19:23:01.822Z,8.24
2019-04-04T19:26:11.504Z,8.24
2019-04-04T19:29:20.066Z,8.35
2019-04-04T19:32:28.246Z,8.26
2019-04-04T19:35:35.974Z,8.09
2019-04-04T19:38:43.486Z,7.90
2019-04-04T19:41:50.985Z,8.11
2019-04-04T19:44:58.804Z,8.11
2019-04-04T19:48:07.464Z,8.19
2019-04-04T19:51:15.557Z,8.09
2019-04-04T19:54:24.376Z,7.98
2019-04-04T19:57:34.901Z,7.95
2019-04-04T20:00:42.958Z,7.95
2019-04-04T20:03:51.262Z,7.76
2019-04-04T20:06:58.796Z,7.74
2019-04-04T20:10:09.992Z,7.93
2019-04-04T20:13:30.017Z,7.81
2019-04-04T20:16:28.193Z,7.76
2019-04-04T20:19:38.261Z,7.71
2019-04-04T20:22:45.586Z,7.65
2019-04-04T20:25:53.253Z,7.75
2019-04-04T20:29:02.319Z,7.75
2019-04-04T20:32:10.270Z,7.97
2019-04-04T20:35:17.618Z,7.58
2019-04-04T20:38:26.342Z,7.69
2019-04-04T20:41:33.721Z,7.69
2019-04-04T20:44:41.485Z,7.78
2019-04-04T20:47:50.272Z,7.84
2019-04-04T20:50:58.483Z,7.84
2019-04-04T20:54:05.657Z,7.81
2019-04-04T20:57:13.360Z,7.81
2019-04-04T21:00:20.368Z,7.67
2019-04-04T21:03:27.249Z,7.75
2019-04-04T21:06:35.656Z,7.74
2019-04-04T21:09:44.415Z,7.93
2019-04-04T21:12:51.055Z,7.87
2019-04-04T21:15:58.638Z,7.97
2019-04-04T21:19:05.932Z,7.87
2019-04-04T21:22:26.552Z,7.87
2019-04-04T21:25:22.674Z,7.96
2019-04-04T21:28:30.311Z,7.83
2019-04-04T21:31:37.950Z,7.92
2019-04-04T21:34:45.324Z,7.89
2019-04-04T21:37:53.465Z,7.81
2019-04-04T21:41:00.277Z,7.82
2019-04-04T21:44:09.208Z,7.86
2019-04-04T21:47:17.437Z,8.01
2019-04-04T21:50:23.854Z,8.05
2019-04-04T21:53:31.160Z,8.09
2019-04-04T21:56:39.080Z,7.85
2019-04-04T21:59:46.285Z,7.85
2019-04-04T22:02:53.272Z,7.79
2019-04-04T22:06:01.190Z,7.91
2019-04-04T22:09:12.972Z,8.09
2019-04-04T22:12:20.942Z,7.99
2019-04-04T22:15:28.336Z,8.09
2019-04-04T22:18:35.966Z,8.00
2019-04-04T22:21:43.108Z,8.04
2019-04-04T22:24:50.336Z,8.09
2019-04-04T22:27:57.276Z,7.82
2019-04-04T22:31:04.726Z,7.84
2019-04-04T22:34:11.908Z,7.80
2019-04-04T22:37:19.452Z,7.92
2019-04-04T22:40:27.509Z,7.86
2019-04-04T22:43:35.355Z,7.86
2019-04-04T22:46:42.919Z,7.79
2019-04-04T22:49:50.307Z,7.75
2019-04-04T22:52:57.293Z,7.57
2019-04-04T22:56:04.385Z,7.36
2019-04-04T22:59:12.272Z,7.25
2019-04-04T23:02:19.261Z,7.25
2019-04-04T23:05:26.269Z,7.37
2019-04-04T23:08:33.328Z,7.14
2019-04-04T23:11:41.309Z,7.43
2019-04-04T23:14:48.768Z,7.42
2019-04-04T23:17:56.290Z,7.22
2019-04-04T23:21:04.364Z,7.26
2019-04-04T23:24:10.894Z,7.28
2019-04-04T23:27:18.369Z,7.40
2019-04-04T23:30:25.385Z,7.27
2019-04-04T23:33:31.870Z,7.52
2019-04-04T23:36:38.893Z,7.41
2019-04-04T23:40:36.788Z,7.65
2019-04-04T23:43:44.358Z,7.53
2019-04-04T23:46:51.715Z,7.66
2019-04-04T23:49:58.724Z,7.55
2019-04-04T23:53:06.403Z,7.16
2019-04-04T23:56:13.443Z,7.35
2019-04-04T23:59:20.283Z,7.43
